Time;durP1;ratioP1;P1;durP2;ratioP2;P2;SDS_P1;SDS_P2;PMS_P1;PMS_P2;Temp;Humidity;BMP_temperature;BMP_pressure;BME280_temperature;BME280_humidity;BME280_pressure;Samples;Min_cycle;Max_cycle;Signal;HPM_P1;HPM_P2
2023/04/26 00:02:20;;;;;;;18.63;9.20;;;;;;;-146.07;100.00;70291.31;10424970;28;20325;-72
2023/04/26 00:07:23;;;;;;;18.30;9.73;;;;;;;-146.07;100.00;70291.31;10424159;28;20100;-72
2023/04/26 00:12:24;;;;;;;17.60;10.02;;;;;;;-146.07;100.00;70291.31;10423255;28;20025;-72
2023/04/26 00:17:24;;;;;;;27.13;11.75;;;;;;;-146.07;100.00;70291.31;10422972;28;20399;-71
2023/04/26 00:22:24;;;;;;;20.63;10.30;;;;;;;-146.07;100.00;70291.31;10423913;28;20078;-71
2023/04/26 00:27:25;;;;;;;21.35;10.32;;;;;;;-146.07;100.00;70291.31;10423695;28;20381;-71
2023/04/26 00:32:25;;;;;;;22.30;11.20;;;;;;;-146.07;100.00;70291.31;10424147;28;20029;-71
2023/04/26 00:37:26;;;;;;;23.90;11.43;;;;;;;-146.07;100.00;70291.31;10423117;28;20032;-72
2023/04/26 00:42:26;;;;;;;23.87;12.33;;;;;;;-146.07;100.00;70291.31;10423140;28;20041;-71
2023/04/26 00:47:29;;;;;;;21.48;10.73;;;;;;;-146.07;100.00;70291.31;10422847;28;20348;-71
2023/04/26 00:52:30;;;;;;;23.52;11.63;;;;;;;-146.07;100.00;70291.31;10422069;28;20032;-72
2023/04/26 00:57:31;;;;;;;29.00;13.52;;;;;;;-146.07;100.00;70291.31;10415732;28;20032;-71
2023/04/26 01:02:31;;;;;;;21.95;10.75;;;;;;;-146.07;100.00;70291.31;10421608;28;20541;-71
2023/04/26 01:07:32;;;;;;;24.75;11.13;;;;;;;-146.07;100.00;70291.31;10421765;28;20029;-71
2023/04/26 01:12:33;;;;;;;25.52;11.25;;;;;;;-146.07;100.00;70291.31;10419392;28;20029;-71
2023/04/26 01:17:33;;;;;;;22.02;10.68;;;;;;;-146.07;100.00;70291.31;10421640;28;20467;-72
2023/04/26 01:22:35;;;;;;;20.88;10.88;;;;;;;-146.07;100.00;70291.31;10421178;28;20032;-70
2023/04/26 01:27:35;;;;;;;21.20;11.02;;;;;;;-146.07;100.00;70291.31;10420385;28;20049;-71
2023/04/26 01:32:36;;;;;;;25.45;11.63;;;;;;;-146.07;100.00;70291.31;10420559;28;20029;-72
2023/04/26 01:37:36;;;;;;;26.50;11.35;;;;;;;-146.07;100.00;70291.31;10416486;28;20809;-72
2023/04/26 01:42:37;;;;;;;22.67;11.85;;;;;;;-146.07;100.00;70291.31;10417865;28;20769;-72
2023/04/26 01:47:37;;;;;;;23.25;10.85;;;;;;;-146.07;100.00;70291.31;10402389;28;20068;-72
2023/04/26 01:52:37;;;;;;;20.27;11.07;;;;;;;-146.07;100.00;70291.31;10420748;28;20032;-72
2023/04/26 01:57:38;;;;;;;21.75;9.70;;;;;;;-146.07;100.00;70291.31;10420300;28;20663;-71
2023/04/26 02:02:39;;;;;;;17.45;9.07;;;;;;;-146.07;100.00;70291.31;10379853;28;20033;-72
2023/04/26 02:07:39;;;;;;;21.08;10.18;;;;;;;-146.07;100.00;70291.31;10408969;28;20063;-71
2023/04/26 02:12:40;;;;;;;18.15;9.82;;;;;;;-146.07;100.00;70291.31;10420514;28;20301;-71
2023/04/26 02:17:41;;;;;;;19.58;10.05;;;;;;;-146.07;100.00;70291.31;10420357;28;20021;-71
2023/04/26 02:22:41;;;;;;;18.70;10.05;;;;;;;-146.07;100.00;70291.31;10402682;28;20056;-71
2023/04/26 02:27:42;;;;;;;23.40;9.73;;;;;;;-146.07;100.00;70291.31;10420013;28;20109;-72
2023/04/26 02:32:42;;;;;;;19.33;11.17;;;;;;;-146.07;100.00;70291.31;10420862;28;20060;-71
2023/04/26 02:37:42;;;;;;;19.67;8.90;;;;;;;-146.07;100.00;70291.31;10423435;28;20279;-71
2023/04/26 02:42:43;;;;;;;16.33;9.20;;;;;;;-146.07;100.00;70291.31;10427472;28;20411;-72
2023/04/26 02:47:43;;;;;;;16.25;8.85;;;;;;;-146.07;100.00;70291.31;10426730;28;20299;-71
2023/04/26 02:52:44;;;;;;;18.50;9.57;;;;;;;-146.07;100.00;70291.31;10426542;28;20029;-72
2023/04/26 02:57:44;;;;;;;16.63;9.57;;;;;;;-146.07;100.00;70291.31;10426268;28;20051;-71
2023/04/26 03:02:45;;;;;;;13.10;7.80;;;;;;;-146.07;100.00;70291.31;10425990;28;20032;-71
2023/04/26 03:07:45;;;;;;;11.70;6.20;;;;;;;-146.07;100.00;70291.31;10425735;28;20015;-70
2023/04/26 03:12:46;;;;;;;6.43;4.43;;;;;;;-146.07;100.00;70291.31;10425318;28;20097;-70
2023/04/26 03:17:46;;;;;;;6.80;4.93;;;;;;;-146.07;100.00;70291.31;10425504;28;20789;-71
2023/04/26 03:22:47;;;;;;;6.88;3.83;;;;;;;-146.07;100.00;70291.31;10391615;28;20067;-70
2023/04/26 03:27:47;;;;;;;7.93;4.60;;;;;;;-146.07;100.00;70291.31;10400641;28;20024;-70
2023/04/26 03:32:48;;;;;;;8.05;4.70;;;;;;;-146.07;100.00;70291.31;10425590;28;20031;-70
2023/04/26 03:37:48;;;;;;;8.70;4.85;;;;;;;-146.07;100.00;70291.31;10424965;28;20119;-71
2023/04/26 03:42:49;;;;;;;11.85;4.68;;;;;;;-146.07;100.00;70291.31;10425107;28;20806;-71
2023/04/26 03:47:50;;;;;;;14.55;5.28;;;;;;;-146.07;100.00;70291.31;10424092;28;20045;-71
2023/04/26 03:52:51;;;;;;;8.00;5.35;;;;;;;-146.07;100.00;70291.31;10424018;28;20029;-71
2023/04/26 03:57:52;;;;;;;10.27;6.32;;;;;;;-146.07;100.00;70291.31;10422481;28;20483;-72
2023/04/26 04:02:53;;;;;;;9.90;6.07;;;;;;;-146.07;100.00;70291.31;10431400;28;20123;-71
2023/04/26 04:07:55;;;;;;;15.05;7.63;;;;;;;-146.07;100.00;70291.31;10421678;28;20017;-71
2023/04/26 04:12:55;;;;;;;17.73;8.85;;;;;;;-146.07;100.00;70291.31;10449132;28;20745;-71
2023/04/26 04:17:56;;;;;;;12.93;8.30;;;;;;;-146.07;100.00;70291.31;10422336;28;20415;-69
2023/04/26 04:22:57;;;;;;;20.30;10.55;;;;;;;-146.07;100.00;70291.31;10445746;28;20033;-70
2023/04/26 04:27:58;;;;;;;20.88;10.95;;;;;;;-146.07;100.00;70291.31;10423097;28;20437;-71
2023/04/26 04:32:59;;;;;;;23.30;11.57;;;;;;;-146.07;100.00;70291.31;10425415;28;20024;-70
2023/04/26 04:38:00;;;;;;;17.88;10.70;;;;;;;-146.07;100.00;70291.31;10460690;28;20021;-71
2023/04/26 04:43:01;;;;;;;21.02;10.77;;;;;;;-146.07;100.00;70291.31;10427316;28;20021;-70
2023/04/26 04:48:03;;;;;;;19.40;10.70;;;;;;;-146.07;100.00;70291.31;10422223;28;20490;-71
2023/04/26 04:53:04;;;;;;;17.67;9.73;;;;;;;-146.07;100.00;70291.31;10421594;28;20286;-71
2023/04/26 04:58:05;;;;;;;23.35;11.55;;;;;;;-146.07;100.00;70291.31;10402330;28;20036;-71
2023/04/26 05:03:08;;;;;;;17.25;9.70;;;;;;;-146.07;100.00;70291.31;10419991;28;20036;-71
2023/04/26 05:08:09;;;;;;;18.80;11.10;;;;;;;-146.07;100.00;70291.31;10403095;28;20051;-71
2023/04/26 05:13:09;;;;;;;21.52;10.95;;;;;;;-146.07;100.00;70291.31;10422002;28;20499;-71
2023/04/26 05:18:09;;;;;;;17.42;10.02;;;;;;;-146.07;100.00;70291.31;10403457;28;20533;-71
2023/04/26 05:23:10;;;;;;;21.75;10.45;;;;;;;-146.07;100.00;70291.31;10420791;28;20029;-71
2023/04/26 05:28:12;;;;;;;23.67;11.38;;;;;;;-146.07;100.00;70291.31;10420782;28;20032;-70
2023/04/26 05:33:13;;;;;;;25.73;11.30;;;;;;;-146.07;100.00;70291.31;10420899;28;20380;-70
2023/04/26 05:38:14;;;;;;;27.25;11.27;;;;;;;-146.07;100.00;70291.31;10420840;28;20530;-71
2023/04/26 05:43:14;;;;;;;25.10;11.80;;;;;;;-146.07;100.00;70291.31;10402501;28;20075;-70
2023/04/26 05:48:15;;;;;;;22.83;9.77;;;;;;;-146.07;100.00;70291.31;10420418;28;20031;-70
2023/04/26 05:53:15;;;;;;;19.38;9.70;;;;;;;-146.07;100.00;70291.31;10419916;28;20050;-71
2023/04/26 05:58:16;;;;;;;14.25;8.27;;;;;;;-146.07;100.00;70291.31;10420559;28;20116;-70
2023/04/26 06:03:17;;;;;;;31.15;10.20;;;;;;;-146.07;100.00;70291.31;10420014;28;20033;-70
2023/04/26 06:08:17;;;;;;;18.10;7.82;;;;;;;-146.07;100.00;70291.31;10419308;28;20033;-72
2023/04/26 06:13:18;;;;;;;17.45;8.30;;;;;;;-146.07;100.00;70291.31;10407494;28;20050;-70
2023/04/26 06:18:18;;;;;;;15.20;7.03;;;;;;;-146.07;100.00;70291.31;10427486;28;20048;-70
2023/04/26 06:23:19;;;;;;;24.45;7.10;;;;;;;-146.07;100.00;70291.31;10427755;28;20298;-71
2023/04/26 06:28:19;;;;;;;13.57;6.15;;;;;;;-146.07;100.00;70291.31;10427641;28;20594;-71
2023/04/26 06:33:20;;;;;;;8.93;5.63;;;;;;;-146.07;100.00;70291.31;10427206;28;20021;-70
2023/04/26 06:38:20;;;;;;;10.00;5.10;;;;;;;-146.07;100.00;70291.31;10426975;28;20279;-71
2023/04/26 06:43:20;;;;;;;12.55;6.25;;;;;;;-146.07;100.00;70291.31;10426682;28;20279;-71
2023/04/26 06:48:21;;;;;;;19.70;7.17;;;;;;;-146.07;100.00;70291.31;10409626;28;20403;-71
2023/04/26 06:53:21;;;;;;;10.85;4.93;;;;;;;-146.07;100.00;70291.31;10426286;28;20811;-71
2023/04/26 06:58:22;;;;;;;15.00;6.22;;;;;;;-146.07;100.00;70291.31;10426953;28;20537;-71
2023/04/26 07:03:22;;;;;;;10.80;5.30;;;;;;;-146.07;100.00;70291.31;10426881;28;20646;-71
2023/04/26 07:08:23;;;;;;;9.07;4.97;;;;;;;-146.07;100.00;70291.31;10408861;28;20303;-71
2023/04/26 07:13:23;;;;;;;6.40;4.43;;;;;;;-146.07;100.00;70291.31;10426048;28;20264;-71
2023/04/26 07:18:24;;;;;;;4.53;3.38;;;;;;;-146.07;100.00;70291.31;10426403;28;20279;-71
2023/04/26 07:23:24;;;;;;;8.00;3.97;;;;;;;-146.07;100.00;70291.31;10425553;28;20139;-71
2023/04/26 07:28:25;;;;;;;7.53;4.32;;;;;;;-146.07;100.00;70291.31;10425411;28;20048;-71
2023/04/26 07:33:26;;;;;;;16.92;4.22;;;;;;;-146.07;100.00;70291.31;10425297;28;20053;-72
2023/04/26 07:38:26;;;;;;;14.25;4.65;;;;;;;-146.07;100.00;70291.31;10425687;28;20233;-71
2023/04/26 07:43:27;;;;;;;8.57;4.25;;;;;;;-146.07;100.00;70291.31;10424729;28;20028;-72
2023/04/26 07:48:28;;;;;;;5.32;3.42;;;;;;;-146.07;100.00;70291.31;10425124;28;20029;-71
2023/04/26 07:53:28;;;;;;;4.65;3.00;;;;;;;-146.07;100.00;70291.31;10424572;28;20060;-72
2023/04/26 07:58:28;;;;;;;6.07;2.97;;;;;;;-146.07;100.00;70291.31;10424386;28;20367;-71
2023/04/26 08:03:29;;;;;;;4.03;2.90;;;;;;;-146.07;100.00;70291.31;10424365;28;20269;-72
2023/04/26 08:08:31;;;;;;;6.18;3.53;;;;;;;-146.07;100.00;70291.31;10406559;28;20283;-73
2023/04/26 08:13:31;;;;;;;9.05;3.75;;;;;;;-146.07;100.00;70291.31;10424998;28;20415;-71
2023/04/26 08:18:32;;;;;;;5.50;3.47;;;;;;;-146.07;100.00;70291.31;10423302;28;20051;-71
2023/04/26 08:23:37;;;;;;;4.25;3.05;;;;;;;-146.07;100.00;70291.31;10423350;28;20082;-71
2023/04/26 08:28:37;;;;;;;11.57;4.20;;;;;;;-146.07;100.00;70291.31;10423079;28;20032;-71
2023/04/26 08:33:37;;;;;;;4.03;3.30;;;;;;;-146.07;100.00;70291.31;10422490;28;20028;-71
2023/04/26 08:38:38;;;;;;;5.10;3.25;;;;;;;-146.07;100.00;70291.31;10422489;28;20032;-71
2023/04/26 08:43:39;;;;;;;6.03;3.50;;;;;;;-146.07;100.00;70291.31;10422408;28;20044;-70
2023/04/26 08:48:39;;;;;;;9.27;4.10;;;;;;;-146.07;100.00;70291.31;10422251;28;20487;-70
2023/04/26 08:53:41;;;;;;;7.03;4.00;;;;;;;-146.07;100.00;70291.31;10422501;28;20021;-72
2023/04/26 08:58:42;;;;;;;4.18;3.20;;;;;;;-146.07;100.00;70291.31;10421996;28;20086;-71
2023/04/26 09:03:42;;;;;;;6.00;3.07;;;;;;;-146.07;100.00;70291.31;10421964;28;20086;-71
2023/04/26 09:08:43;;;;;;;11.10;5.00;;;;;;;-146.07;100.00;70291.31;10422130;28;20719;-72
2023/04/26 09:13:43;;;;;;;3.58;2.60;;;;;;;-146.07;100.00;70291.31;10403512;28;20305;-72
2023/04/26 09:18:51;;;;;;;4.17;2.73;;;;;;;-146.07;100.00;70291.31;10421158;28;20472;-71
2023/04/26 09:24:03;;;;;;;3.65;2.58;;;;;;;-146.07;100.00;70291.31;10419801;28;20517;-70
2023/04/26 09:29:15;;;;;;;4.55;3.40;;;;;;;-146.07;100.00;70291.31;10400142;28;20499;-72
2023/04/26 09:34:16;;;;;;;5.32;3.38;;;;;;;-146.07;100.00;70291.31;10400333;28;20028;-72
2023/04/26 09:39:36;;;;;;;4.10;3.03;;;;;;;-146.07;100.00;70291.31;10416934;28;20040;-72
2023/04/26 09:44:37;;;;;;;5.07;3.20;;;;;;;-146.07;100.00;70291.31;10417557;28;20462;-71
2023/04/26 09:49:47;;;;;;;10.57;3.97;;;;;;;-146.07;100.00;70291.31;10425972;28;20037;-71
2023/04/26 09:54:50;;;;;;;7.05;3.00;;;;;;;-146.07;100.00;70291.31;10435001;28;20456;-71
2023/04/26 09:59:55;;;;;;;4.47;2.60;;;;;;;-146.07;100.00;70291.31;10428911;28;20417;-71
2023/04/26 10:04:58;;;;;;;5.13;2.50;;;;;;;-146.07;100.00;70291.31;10428901;28;20032;-71
2023/04/26 10:10:00;;;;;;;4.15;2.83;;;;;;;-146.07;100.00;70291.31;10427233;28;20105;-70
2023/04/26 10:15:02;;;;;;;5.95;2.42;;;;;;;-146.07;100.00;70291.31;10427953;28;20043;-70
2023/04/26 10:20:07;;;;;;;5.97;2.80;;;;;;;-146.07;100.00;70291.31;10426195;28;20435;-70
2023/04/26 10:25:08;;;;;;;4.60;2.03;;;;;;;-146.07;100.00;70291.31;10426801;28;20075;-70
2023/04/26 10:30:11;;;;;;;3.67;2.03;;;;;;;-146.07;100.00;70291.31;10426785;28;20025;-72
2023/04/26 10:35:18;;;;;;;4.97;1.80;;;;;;;-146.07;100.00;70291.31;10425629;28;20029;-71
2023/04/26 10:40:27;;;;;;;6.47;1.40;;;;;;;-146.07;100.00;70291.31;10426134;28;20483;-72
2023/04/26 10:45:33;;;;;;;7.18;1.67;;;;;;;-146.07;100.00;70291.31;10426320;28;20111;-72
2023/04/26 10:51:22;;;;;;;2.03;1.50;;;;;;;-146.07;100.00;70291.31;10409544;28;20028;-71
2023/04/26 10:56:23;;;;;;;;;;;;;;;-146.07;100.00;70291.31;10385522;28;20033;-69
2023/04/26 11:01:24;;;;;;;4.80;2.17;;;;;;;-146.07;100.00;70291.31;10414726;28;19920;-71
2023/04/26 11:06:25;;;;;;;2.42;1.55;;;;;;;-146.07;100.00;70291.31;10408104;28;20032;-72
2023/04/26 11:11:28;;;;;;;4.60;1.70;;;;;;;-146.07;100.00;70291.31;10426509;28;20025;-71
2023/04/26 11:16:29;;;;;;;2.70;1.35;;;;;;;-146.07;100.00;70291.31;10426281;28;20025;-71
2023/04/26 11:21:31;;;;;;;2.65;1.52;;;;;;;-146.07;100.00;70291.31;10425709;28;20395;-71
2023/04/26 11:26:35;;;;;;;3.08;1.80;;;;;;;-146.07;100.00;70291.31;10425603;28;20021;-71
2023/04/26 11:31:36;;;;;;;4.57;2.20;;;;;;;-146.07;100.00;70291.31;10408389;28;20387;-70
2023/04/26 11:36:37;;;;;;;6.70;1.63;;;;;;;-146.07;100.00;70291.31;10425147;28;20044;-70
2023/04/26 11:41:38;;;;;;;6.15;1.90;;;;;;;-146.07;100.00;70291.31;10425017;28;20279;-70
2023/04/26 11:46:38;;;;;;;4.57;1.92;;;;;;;-146.07;100.00;70291.31;10424930;28;20102;-71
2023/04/26 11:51:39;;;;;;;3.65;2.00;;;;;;;-146.07;100.00;70291.31;10424642;28;20029;-70
2023/04/26 11:56:39;;;;;;;2.50;1.50;;;;;;;-146.07;100.00;70291.31;10422999;28;20058;-71
2023/04/26 12:01:51;;;;;;;12.02;2.33;;;;;;;-146.07;100.00;70291.31;10424268;28;20086;-71
2023/04/26 12:06:51;;;;;;;3.60;1.80;;;;;;;-146.07;100.00;70291.31;10422554;28;20032;-71
2023/04/26 12:12:05;;;;;;;7.13;2.03;;;;;;;-146.07;100.00;70291.31;10424250;28;20021;-71
2023/04/26 12:17:06;;;;;;;3.03;1.67;;;;;;;-146.07;100.00;70291.31;10423190;28;20287;-71
2023/04/26 12:22:08;;;;;;;2.88;1.75;;;;;;;-146.07;100.00;70291.31;10423672;28;20031;-71
2023/04/26 12:27:19;;;;;;;4.65;1.88;;;;;;;-146.07;100.00;70291.31;10405631;28;20086;-71
2023/04/26 12:32:20;;;;;;;6.43;2.25;;;;;;;-146.07;100.00;70291.31;10422954;28;20365;-69
2023/04/26 12:37:20;;;;;;;4.10;1.77;;;;;;;-146.07;100.00;70291.31;10405322;28;20037;-67
2023/04/26 12:42:20;;;;;;;1.70;1.33;;;;;;;-146.07;100.00;70291.31;10422354;28;20013;-70
2023/04/26 12:47:21;;;;;;;6.97;3.03;;;;;;;-146.07;100.00;70291.31;10418021;28;20291;-70
2023/04/26 12:52:21;;;;;;;8.17;2.23;;;;;;;-146.07;100.00;70291.31;10420095;28;20048;-70
2023/04/26 12:57:22;;;;;;;2.60;1.80;;;;;;;-146.07;100.00;70291.31;10420142;28;20119;-70
2023/04/26 13:02:23;;;;;;;2.78;1.75;;;;;;;-146.07;100.00;70291.31;10417935;28;20510;-71
2023/04/26 13:07:24;;;;;;;2.20;1.75;;;;;;;-146.07;100.00;70291.31;10402230;28;20052;-71
2023/04/26 13:12:25;;;;;;;3.08;2.20;;;;;;;-146.07;100.00;70291.31;10404524;28;20451;-70
2023/04/26 13:17:25;;;;;;;3.88;2.20;;;;;;;-146.07;100.00;70291.31;10420065;28;20025;-71
2023/04/26 13:22:26;;;;;;;2.67;2.10;;;;;;;13.21;66.23;93850.59;10420196;28;20037;-70
2023/04/26 13:27:28;;;;;;;3.85;2.38;;;;;;;13.50;69.32;93854.72;10419428;28;20044;-70
2023/04/26 13:32:29;;;;;;;2.80;2.20;;;;;;;13.52;65.23;93846.31;10397248;28;20413;-70
2023/04/26 13:37:30;;;;;;;3.55;2.10;;;;;;;14.00;100.00;70291.31;10419214;28;20041;-70
2023/04/26 13:42:31;;;;;;;3.90;2.20;;;;;;;13.59;100.00;93862.84;10408127;28;20032;-70
2023/04/26 13:47:31;;;;;;;4.90;2.40;;;;;;;-146.07;100.00;70291.31;10399607;28;20381;-70
2023/04/26 13:52:32;;;;;;;6.45;2.15;;;;;;;14.09;61.27;93877.88;10418656;28;20075;-70
2023/04/26 13:57:33;;;;;;;6.88;3.20;;;;;;;14.08;70.44;93879.78;10418576;28;20037;-71
2023/04/26 14:02:33;;;;;;;5.18;3.63;;;;;;;14.51;66.39;93879.00;10400538;28;20102;-70
2023/04/26 14:07:33;;;;;;;5.63;2.58;;;;;;;14.55;61.86;93894.59;10418207;28;20087;-69
2023/04/26 14:12:34;;;;;;;4.38;2.92;;;;;;;14.45;60.90;93899.19;10418269;28;20068;-71
2023/04/26 14:17:35;;;;;;;6.88;3.92;;;;;;;14.18;65.19;93900.31;10396375;28;20036;-71
2023/04/26 14:22:35;;;;;;;5.70;3.20;;;;;;;13.90;65.75;93921.38;10418596;28;20029;-71
2023/04/26 14:27:36;;;;;;;4.77;4.00;;;;;;;13.71;67.23;93919.72;10421770;28;20032;-72
2023/04/26 14:32:37;;;;;;;9.30;3.70;;;;;;;13.72;67.21;93928.66;10418294;28;20279;-71
2023/04/26 14:37:37;;;;;;;6.97;3.60;;;;;;;13.60;68.64;93935.41;10426719;28;20060;-71
2023/04/26 14:42:43;;;;;;;8.33;3.73;;;;;;;13.15;70.13;93932.78;10426667;28;20033;-70
2023/04/26 14:47:43;;;;;;;5.05;4.13;;;;;;;12.86;74.48;93944.03;10427051;28;20310;-71
2023/04/26 14:52:47;;;;;;;6.22;4.25;;;;;;;13.17;79.64;93952.16;10428331;28;20037;-71
2023/04/26 14:57:49;;;;;;;7.10;4.15;;;;;;;13.15;76.16;93955.16;10463476;28;20024;-71
2023/04/26 15:02:50;;;;;;;15.50;4.60;;;;;;;12.93;78.39;93971.38;10444413;28;20039;-71
2023/04/26 15:07:50;;;;;;;5.53;4.35;;;;;;;13.15;77.00;93970.56;10426644;28;20388;-72
2023/04/26 15:12:51;;;;;;;6.40;4.18;;;;;;;12.87;82.39;93989.56;10426333;28;20033;-72
2023/04/26 15:17:51;;;;;;;9.60;5.67;;;;;;;12.83;81.84;93994.78;10425269;28;20055;-72
2023/04/26 15:22:52;;;;;;;8.90;4.55;;;;;;;12.72;87.33;93996.09;10425686;28;20020;-73
2023/04/26 15:27:52;;;;;;;8.55;5.03;;;;;;;12.67;88.82;94001.63;10438332;28;20028;-71
2023/04/26 15:32:53;;;;;;;7.63;5.30;;;;;;;12.21;93.32;93999.91;10430388;28;20063;-71
2023/04/26 15:37:53;;;;;;;8.48;5.38;;;;;;;11.93;93.32;94022.25;10438154;28;20036;-71
2023/04/26 15:42:54;;;;;;;8.27;5.93;;;;;;;11.78;98.69;94023.34;10423467;28;20140;-70
2023/04/26 15:47:55;;;;;;;9.63;6.15;;;;;;;11.82;99.71;94028.13;10423938;28;20110;-72
2023/04/26 15:52:57;;;;;;;9.98;6.47;;;;;;;11.62;98.87;94030.09;10424772;28;20032;-71
2023/04/26 15:57:57;;;;;;;9.98;6.07;;;;;;;11.71;100.00;94044.47;10424083;28;20401;-71
2023/04/26 16:02:58;;;;;;;10.85;5.95;;;;;;;11.62;100.00;94055.13;10423858;28;20684;-72
2023/04/26 16:07:58;;;;;;;8.57;6.70;;;;;;;11.48;100.00;94056.97;10424314;28;20138;-71
2023/04/26 16:12:58;;;;;;;9.73;6.28;;;;;;;11.50;100.00;94062.06;10411392;28;20285;-71
2023/04/26 16:17:59;;;;;;;14.47;7.10;;;;;;;11.23;100.00;94066.25;10422560;28;20031;-71
2023/04/26 16:23:00;;;;;;;12.95;6.18;;;;;;;11.14;100.00;94059.97;10423533;28;20427;-69
2023/04/26 16:28:00;;;;;;;11.68;7.32;;;;;;;11.32;100.00;94072.59;10422506;28;20029;-70
2023/04/26 16:33:03;;;;;;;15.30;7.10;;;;;;;11.15;100.00;94083.88;10422029;28;20028;-71
2023/04/26 16:38:06;;;;;;;13.70;7.68;;;;;;;10.33;100.00;94085.75;10399852;28;20040;-69
2023/04/26 16:43:08;;;;;;;11.32;6.75;;;;;;;10.36;100.00;94095.97;10400253;28;20063;-69
2023/04/26 16:48:08;;;;;;;12.90;7.40;;;;;;;10.47;100.00;94095.84;10421728;28;20045;-70
2023/04/26 16:53:09;;;;;;;10.25;7.55;;;;;;;10.30;100.00;94107.00;10419794;28;20037;-70
2023/04/26 16:58:09;;;;;;;14.57;7.75;;;;;;;10.08;100.00;94111.81;10417963;28;20380;-70
2023/04/26 17:03:10;;;;;;;11.75;7.05;;;;;;;10.17;100.00;94119.25;10423558;28;20514;-70
2023/04/26 17:08:11;;;;;;;14.40;7.72;;;;;;;10.12;100.00;94119.28;10407450;28;20704;-70
2023/04/26 17:13:14;;;;;;;10.23;6.90;;;;;;;10.07;100.00;94137.09;10657476;22;20118;-70
2023/04/26 17:18:14;;;;;;;13.70;7.60;;;;;;;10.02;100.00;94149.72;10417822;28;20035;-70
2023/04/26 17:23:15;;;;;;;12.88;7.05;;;;;;;9.96;100.00;94154.34;10418314;28;20384;-70
2023/04/26 17:28:15;;;;;;;12.77;7.85;;;;;;;10.12;100.00;94167.63;10418867;28;20029;-70
2023/04/26 17:33:16;;;;;;;12.35;8.23;;;;;;;9.98;100.00;94173.69;10419791;28;20055;-72
2023/04/26 17:38:16;;;;;;;12.57;7.47;;;;;;;9.96;100.00;94158.94;10418702;28;20039;-71
2023/04/26 17:43:17;;;;;;;12.30;7.55;;;;;;;10.00;100.00;94173.38;10417412;28;20055;-70
2023/04/26 17:48:17;;;;;;;11.63;7.35;;;;;;;9.91;100.00;94184.75;10419289;28;20025;-71
2023/04/26 17:53:18;;;;;;;12.07;6.88;;;;;;;9.89;100.00;94197.66;10403417;28;20142;-70
2023/04/26 17:58:18;;;;;;;8.87;6.87;;;;;;;10.01;100.00;94202.63;10418925;28;20029;-70
2023/04/26 18:03:19;;;;;;;10.52;7.25;;;;;;;9.91;100.00;94213.47;10419537;28;20348;-71
2023/04/26 18:08:22;;;;;;;12.85;7.22;;;;;;;9.99;100.00;94222.78;10426527;28;20028;-74
2023/04/26 18:13:23;;;;;;;12.32;6.78;;;;;;;10.08;100.00;94229.94;10426551;28;20053;-74
2023/04/26 18:18:23;;;;;;;15.77;6.70;;;;;;;10.09;100.00;94236.94;10429224;28;20040;-75
2023/04/26 18:23:24;;;;;;;9.67;6.77;;;;;;;10.17;100.00;94243.59;10426502;28;20662;-74
2023/04/26 18:28:25;;;;;;;9.55;6.63;;;;;;;9.95;100.00;94246.72;10429490;28;20307;-72
2023/04/26 18:33:27;;;;;;;11.32;6.50;;;;;;;10.03;100.00;94251.50;10426644;28;20037;-74
2023/04/26 18:38:28;;;;;;;10.30;6.85;;;;;;;9.95;100.00;94257.47;10406006;28;20431;-74
2023/04/26 18:43:28;;;;;;;10.95;5.88;;;;;;;9.95;100.00;94262.84;10424482;28;20029;-74
2023/04/26 18:48:28;;;;;;;9.60;5.90;;;;;;;9.78;100.00;94257.84;10430949;28;20036;-73
2023/04/26 18:53:29;;;;;;;17.85;7.32;;;;;;;9.85;100.00;94257.53;10422972;28;20913;-72
2023/04/26 18:58:29;;;;;;;7.78;5.70;;;;;;;9.84;100.00;94262.09;10422967;28;20025;-72
2023/04/26 19:03:30;;;;;;;10.95;6.88;;;;;;;9.82;100.00;94274.19;10424798;28;20024;-72
2023/04/26 19:08:30;;;;;;;9.27;5.82;;;;;;;9.55;100.00;94267.41;10420312;28;20458;-72
2023/04/26 19:13:32;;;;;;;25.73;6.43;;;;;;;9.69;100.00;94287.16;10424244;28;20045;-72
2023/04/26 19:18:32;;;;;;;11.95;6.00;;;;;;;9.60;100.00;94282.66;10422780;28;20490;-76
2023/04/26 19:23:33;;;;;;;7.72;5.50;;;;;;;9.70;100.00;94288.75;10425131;28;20382;-74
2023/04/26 19:28:34;;;;;;;6.68;5.15;;;;;;;9.67;100.00;94293.88;10423714;28;20059;-74
2023/04/26 19:33:35;;;;;;;8.68;5.43;;;;;;;9.52;100.00;94292.09;10423964;28;20028;-75
2023/04/26 19:38:36;;;;;;;8.10;4.60;;;;;;;9.65;100.00;94304.09;10423552;28;20415;-73
2023/04/26 19:43:36;;;;;;;7.18;5.45;;;;;;;9.66;100.00;94293.06;10404838;28;20059;-73
2023/04/26 19:48:37;;;;;;;11.53;5.60;;;;;;;9.45;100.00;94305.81;10423647;28;20147;-74
2023/04/26 19:53:37;;;;;;;9.35;4.88;;;;;;;9.50;100.00;94304.97;10423016;28;20704;-75
2023/04/26 19:58:38;;;;;;;9.65;5.32;;;;;;;9.37;100.00;94307.19;10422560;28;20029;-74
2023/04/26 20:03:40;;;;;;;8.93;5.00;;;;;;;9.10;100.00;94314.81;10422090;28;20032;-73
2023/04/26 20:08:40;;;;;;;7.35;5.32;;;;;;;9.02;100.00;94308.94;10407233;28;20063;-73
2023/04/26 20:13:41;;;;;;;8.18;6.25;;;;;;;9.07;100.00;94322.31;10404056;28;20106;-74
2023/04/26 20:18:42;;;;;;;9.38;5.35;;;;;;;9.15;100.00;94317.47;10419858;28;20025;-74
2023/04/26 20:23:42;;;;;;;9.23;6.22;;;;;;;9.34;100.00;94320.34;10420186;28;20021;-74
2023/04/26 20:28:44;;;;;;;16.07;6.90;;;;;;;9.11;100.00;94321.78;10420899;28;20027;-73
2023/04/26 20:33:45;;;;;;;9.23;6.43;;;;;;;9.03;100.00;94323.16;10400984;28;20453;-73
2023/04/26 20:38:45;;;;;;;10.38;6.20;;;;;;;8.94;100.00;94330.94;10419674;28;20013;-72
2023/04/26 20:43:46;;;;;;;11.35;6.32;;;;;;;8.97;100.00;94340.31;10419582;28;20487;-73
2023/04/26 20:48:47;;;;;;;8.63;6.03;;;;;;;8.91;100.00;94331.50;10415710;28;20452;-75
2023/04/26 20:53:47;;;;;;;14.82;5.07;;;;;;;8.99;100.00;94341.66;10422066;28;20131;-74
2023/04/26 20:58:48;;;;;;;12.17;6.13;;;;;;;8.81;100.00;94345.72;10422091;28;20541;-75
2023/04/26 21:03:48;;;;;;;11.90;5.78;;;;;;;8.89;100.00;94350.53;10421060;28;20271;-74
2023/04/26 21:08:48;;;;;;;8.83;5.50;;;;;;;8.97;100.00;94351.84;10400449;28;20018;-75
2023/04/26 21:13:49;;;;;;;9.23;4.85;;;;;;;8.88;100.00;94365.00;10417704;28;20597;-73
2023/04/26 21:18:49;;;;;;;10.10;5.32;;;;;;;8.88;100.00;94372.25;10417775;28;20021;-73
2023/04/26 21:23:50;;;;;;;14.15;5.00;;;;;;;8.66;100.00;94377.88;10418210;28;20083;-74
2023/04/26 21:28:50;;;;;;;11.48;5.45;;;;;;;8.79;100.00;94382.72;10421645;28;20033;-74
2023/04/26 21:33:51;;;;;;;10.30;6.03;;;;;;;8.72;100.00;94388.34;10421491;28;20502;-74
2023/04/26 21:38:51;;;;;;;11.60;4.22;;;;;;;8.52;100.00;94386.47;10421064;28;20479;-74
2023/04/26 21:43:52;;;;;;;7.90;4.35;;;;;;;8.55;100.00;94398.50;10424480;28;20025;-73
2023/04/26 21:48:52;;;;;;;11.25;4.82;;;;;;;8.48;100.00;94396.09;10434997;28;20032;-73
2023/04/26 21:53:53;;;;;;;9.25;4.90;;;;;;;8.59;100.00;94398.78;10435005;28;20490;-73
2023/04/26 21:58:53;;;;;;;9.68;4.50;;;;;;;8.49;100.00;94404.97;10435271;28;20526;-74
2023/04/26 22:03:54;;;;;;;11.10;4.33;;;;;;;8.52;100.00;94410.56;10435184;28;20029;-76
2023/04/26 22:08:55;;;;;;;10.98;4.60;;;;;;;8.47;100.00;94412.44;10434474;28;20607;-75
2023/04/26 22:13:57;;;;;;;8.35;4.65;;;;;;;8.59;100.00;94420.22;10434721;28;20049;-75
2023/04/26 22:18:58;;;;;;;8.35;4.10;;;;;;;8.32;100.00;94427.41;10434057;28;20025;-75
2023/04/26 22:23:59;;;;;;;8.02;3.65;;;;;;;8.36;100.00;94433.03;10434146;28;20438;-75
2023/04/26 22:29:00;;;;;;;5.93;3.72;;;;;;;8.31;100.00;94436.50;10435036;28;20142;-75
2023/04/26 22:34:02;;;;;;;13.38;4.05;;;;;;;8.29;100.00;94443.19;10433725;28;20057;-75
2023/04/26 22:39:02;;;;;;;4.60;3.17;;;;;;;8.38;100.00;94447.75;10434050;28;20388;-75